Time;durP1;ratioP1;P1;durP2;ratioP2;P2;SDS_P1;SDS_P2;PMS_P1;PMS_P2;Temp;Humidity;BMP_temperature;BMP_pressure;BME280_temperature;BME280_humidity;BME280_pressure;Samples;Min_cycle;Max_cycle;Signal;HPM_P1;HPM_P2
2023/07/27 00:02:25;;;;;;;10.10;3.50;;;;;;;16.20;100.00;98164.41;5138804;28;20375;-64
2023/07/27 00:04:51;;;;;;;7.65;3.95;;;;;;;16.20;100.00;98181.00;5139064;28;20047;-65
2023/07/27 00:07:17;;;;;;;5.13;3.45;;;;;;;16.15;100.00;98167.66;5138360;27;20422;-62
2023/07/27 00:09:43;;;;;;;8.82;3.95;;;;;;;16.31;100.00;98009.28;5138755;27;20047;-61
2023/07/27 00:12:09;;;;;;;7.97;2.65;;;;;;;16.40;100.00;97960.47;5138692;28;20204;-61
2023/07/27 00:14:35;;;;;;;6.97;3.00;;;;;;;16.47;100.00;97934.63;5138776;28;20047;-63
2023/07/27 00:17:01;;;;;;;5.45;3.40;;;;;;;16.51;100.00;97851.53;5138583;28;20431;-64
2023/07/27 00:19:28;;;;;;;4.13;2.80;;;;;;;16.47;100.00;97780.47;5139049;28;20139;-64
2023/07/27 00:21:53;;;;;;;6.05;3.50;;;;;;;16.50;100.00;97720.75;5138501;27;20054;-64
2023/07/27 00:24:19;;;;;;;4.47;2.90;;;;;;;16.42;100.00;97756.09;5138572;28;20103;-64
2023/07/27 00:26:45;;;;;;;8.95;2.83;;;;;;;16.51;100.00;97783.16;5138693;28;20093;-63
2023/07/27 00:29:11;;;;;;;4.43;2.72;;;;;;;16.42;100.00;97742.28;5138565;28;20431;-62
2023/07/27 00:31:37;;;;;;;4.57;2.63;;;;;;;16.44;100.00;97679.00;5138456;28;20047;-61
2023/07/27 00:34:03;;;;;;;6.95;3.60;;;;;;;16.39;100.00;97660.22;5138302;27;20138;-61
2023/07/27 00:36:29;;;;;;;6.07;2.33;;;;;;;16.46;100.00;97639.84;5138552;27;20097;-61
2023/07/27 00:38:55;;;;;;;9.57;2.70;;;;;;;16.37;100.00;97733.75;5138339;28;20139;-61
2023/07/27 00:41:21;;;;;;;3.60;2.55;;;;;;;16.49;100.00;97777.25;5138601;27;20085;-61
2023/07/27 00:43:47;;;;;;;4.55;2.50;;;;;;;16.48;100.00;97793.09;5138190;28;20459;-62
2023/07/27 00:46:14;;;;;;;2.78;2.53;;;;;;;16.25;100.00;97895.66;5138558;28;20129;-63
2023/07/27 00:48:40;;;;;;;7.15;3.80;;;;;;;16.40;100.00;97888.56;5138066;28;20077;-63
2023/07/27 00:51:06;;;;;;;5.65;2.63;;;;;;;16.42;100.00;97865.97;5138490;27;20057;-63
2023/07/27 00:53:33;;;;;;;3.90;3.20;;;;;;;16.47;100.00;97876.53;5138089;28;20145;-62
2023/07/27 00:56:00;;;;;;;7.68;3.22;;;;;;;16.46;100.00;97873.00;5138195;28;20047;-64
2023/07/27 00:58:26;;;;;;;3.50;2.30;;;;;;;16.50;100.00;97751.16;5138284;28;20043;-61
2023/07/27 01:00:52;;;;;;;5.90;3.25;;;;;;;16.59;100.00;97742.22;5138043;28;20129;-64
2023/07/27 01:03:18;;;;;;;6.07;3.10;;;;;;;16.58;100.00;97829.97;5138191;28;20130;-63
2023/07/27 01:05:45;;;;;;;5.00;2.97;;;;;;;16.68;100.00;97817.06;5137790;27;20137;-61
2023/07/27 01:08:11;;;;;;;3.85;3.08;;;;;;;16.75;100.00;97827.94;5138117;27;20047;-60
2023/07/27 01:10:49;;;;;;;5.38;3.47;;;;;;;16.72;100.00;97792.81;5137710;28;20310;-62
2023/07/27 01:13:23;;;;;;;2.80;2.47;;;;;;;16.64;100.00;97799.78;5138109;28;20061;-61
2023/07/27 01:15:56;;;;;;;8.00;2.72;;;;;;;16.61;100.00;97806.19;5137683;28;20050;-64
2023/07/27 01:18:27;;;;;;;6.18;3.15;;;;;;;16.65;100.00;97770.91;5136818;27;20138;-63
2023/07/27 01:21:04;;;;;;;4.70;2.42;;;;;;;16.59;100.00;97728.38;5137883;27;20051;-63
2023/07/27 01:23:45;;;;;;;4.88;2.30;;;;;;;16.65;100.00;97701.72;5137740;28;20118;-63
2023/07/27 01:26:50;;;;;;;6.80;2.75;;;;;;;16.63;100.00;97704.16;5137847;28;20047;-63
2023/07/27 01:29:35;;;;;;;3.38;2.33;;;;;;;16.68;100.00;97642.72;5116839;28;20153;-62
2023/07/27 01:32:04;;;;;;;5.15;3.28;;;;;;;16.78;100.00;97632.59;5137723;28;20360;-61
2023/07/27 01:34:33;;;;;;;3.97;2.63;;;;;;;16.82;100.00;97608.31;5137635;27;20050;-64
2023/07/27 01:37:02;;;;;;;5.55;2.63;;;;;;;16.87;100.00;97600.25;5137462;27;20133;-62
2023/07/27 01:39:31;;;;;;;5.07;2.35;;;;;;;16.77;100.00;97453.94;5137747;27;20138;-64
2023/07/27 01:41:57;;;;;;;3.60;2.25;;;;;;;16.70;100.00;97477.81;5137452;28;20075;-64
2023/07/27 01:44:26;;;;;;;6.32;2.53;;;;;;;16.82;100.00;97364.78;5137615;28;20076;-63
2023/07/27 01:46:54;;;;;;;4.90;2.42;;;;;;;16.87;100.00;97264.59;5137271;28;20146;-63
2023/07/27 01:49:23;;;;;;;2.17;1.98;;;;;;;16.80;100.00;97195.69;5137653;28;20464;-62
2023/07/27 01:51:50;;;;;;;6.05;2.80;;;;;;;16.89;100.00;97160.53;5137189;28;20143;-63
2023/07/27 01:54:16;;;;;;;6.05;2.50;;;;;;;16.82;100.00;97224.44;5137058;28;20425;-62
2023/07/27 01:56:44;;;;;;;6.57;2.47;;;;;;;16.92;100.00;97148.50;5137403;28;20061;-61
2023/07/27 01:59:11;;;;;;;7.75;2.75;;;;;;;16.97;100.00;97205.28;5137295;28;20062;-62
2023/07/27 02:01:37;;;;;;;3.78;2.30;;;;;;;16.98;100.00;97272.50;5137381;28;20146;-61
2023/07/27 02:04:04;;;;;;;4.35;2.55;;;;;;;16.89;100.00;97340.41;5137094;27;20055;-62
2023/07/27 02:06:31;;;;;;;2.42;2.20;;;;;;;16.82;100.00;97348.19;5137115;27;20142;-61
2023/07/27 02:08:57;;;;;;;4.75;2.80;;;;;;;16.92;100.00;97299.97;5137122;28;20051;-62
2023/07/27 02:11:24;;;;;;;3.83;2.15;;;;;;;16.97;100.00;97229.44;5137303;27;20163;-63
2023/07/27 02:13:58;;;;;;;2.42;2.10;;;;;;;17.03;100.00;97213.78;5137057;28;20043;-63
2023/07/27 02:16:31;;;;;;;4.03;2.00;;;;;;;17.11;100.00;97138.28;5137317;28;20321;-62
2023/07/27 02:19:00;;;;;;;3.22;1.60;;;;;;;17.11;100.00;97057.22;5136809;28;20043;-61
2023/07/27 02:21:28;;;;;;;2.30;2.10;;;;;;;17.08;100.00;97036.00;5137101;28;20076;-64
2023/07/27 02:23:55;;;;;;;2.88;2.30;;;;;;;17.13;100.00;97105.38;5137086;28;20134;-61
2023/07/27 02:26:22;;;;;;;6.00;2.30;;;;;;;17.14;100.00;97150.44;5136651;28;20055;-64
2023/07/27 02:28:48;;;;;;;7.15;2.47;;;;;;;17.17;100.00;97188.28;5137077;28;20138;-61
2023/07/27 02:31:13;;;;;;;4.25;2.30;;;;;;;17.04;100.00;97292.81;5139893;27;20061;-61
2023/07/27 02:33:39;;;;;;;4.43;2.00;;;;;;;16.99;100.00;97418.72;5140665;28;20324;-62
2023/07/27 02:36:05;;;;;;;3.30;2.40;;;;;;;16.89;100.00;97492.66;5140031;27;20447;-64
2023/07/27 02:38:31;;;;;;;3.35;1.98;;;;;;;16.75;100.00;97642.53;5140632;28;20047;-64
2023/07/27 02:40:58;;;;;;;3.70;2.10;;;;;;;16.75;100.00;97694.34;5140187;28;20051;-62
2023/07/27 02:43:24;;;;;;;3.30;2.22;;;;;;;16.57;100.00;97775.88;5140611;28;20133;-63
2023/07/27 02:45:50;;;;;;;7.57;3.03;;;;;;;16.63;100.00;97923.53;5139966;28;20051;-63
2023/07/27 02:48:17;;;;;;;4.38;2.40;;;;;;;16.59;100.00;97936.66;5139978;28;20073;-64
2023/07/27 02:50:52;;;;;;;5.57;2.35;;;;;;;16.53;100.00;98023.38;5140249;27;20328;-62
2023/07/27 02:53:18;;;;;;;3.70;2.20;;;;;;;16.59;100.00;97946.94;5140155;27;20161;-64
2023/07/27 02:56:06;;;;;;;8.32;3.00;;;;;;;16.54;100.00;97981.47;5140067;28;20438;-61
2023/07/27 02:58:32;;;;;;;2.78;2.47;;;;;;;16.58;100.00;98011.81;5139979;28;20141;-61
2023/07/27 03:01:02;;;;;;;6.13;2.40;;;;;;;16.63;100.00;98003.00;5140296;28;20083;-64
2023/07/27 03:03:28;;;;;;;10.02;2.70;;;;;;;16.36;100.00;98070.41;5139878;27;20061;-64
2023/07/27 03:05:58;;;;;;;5.20;2.38;;;;;;;16.35;100.00;98146.28;5140165;28;20054;-61
2023/07/27 03:08:24;;;;;;;7.97;2.22;;;;;;;16.35;100.00;98117.84;5139584;27;20359;-64
2023/07/27 03:10:50;;;;;;;3.75;2.33;;;;;;;16.39;100.00;98111.06;5139870;28;20056;-62
2023/07/27 03:13:16;;;;;;;5.85;2.42;;;;;;;16.32;100.00;98157.44;5139810;28;20424;-61
2023/07/27 03:15:42;;;;;;;6.32;2.13;;;;;;;16.35;100.00;98085.44;5139829;28;20062;-63
2023/07/27 03:18:08;;;;;;;5.40;2.70;;;;;;;16.40;100.00;98053.72;5139909;28;20134;-61
2023/07/27 03:20:43;;;;;;;4.72;2.65;;;;;;;16.17;100.00;98046.34;5139681;28;20047;-60
2023/07/27 03:23:10;;;;;;;4.13;2.15;;;;;;;16.01;100.00;98132.78;5139765;28;20047;-64
2023/07/27 03:25:37;;;;;;;7.10;2.30;;;;;;;16.29;100.00;98058.72;5139437;28;20080;-62
2023/07/27 03:28:03;;;;;;;3.42;2.10;;;;;;;16.34;100.00;98119.84;5139426;28;20083;-63
2023/07/27 03:30:30;;;;;;;6.05;2.28;;;;;;;16.39;100.00;98063.22;5139308;28;20138;-63
2023/07/27 03:32:56;;;;;;;2.95;2.60;;;;;;;16.50;100.00;98013.97;5139865;27;20090;-64
2023/07/27 03:35:22;;;;;;;3.20;2.58;;;;;;;16.50;100.00;98035.34;5139213;27;20389;-63
2023/07/27 03:37:50;;;;;;;5.90;2.33;;;;;;;16.49;100.00;98001.34;5139389;27;20058;-63
2023/07/27 03:40:16;;;;;;;5.30;2.30;;;;;;;16.43;100.00;97992.03;5139480;28;20051;-62
2023/07/27 03:42:42;;;;;;;3.80;2.17;;;;;;;16.44;100.00;97903.06;5138265;27;20047;-64
2023/07/27 03:45:09;;;;;;;2.58;2.38;;;;;;;16.52;100.00;97944.38;5139398;28;20051;-63
2023/07/27 03:47:35;;;;;;;2.60;2.40;;;;;;;16.44;100.00;97919.66;5139274;28;20058;-61
2023/07/27 03:50:01;;;;;;;4.45;2.78;;;;;;;16.58;100.00;97948.94;5139400;28;20150;-61
2023/07/27 03:52:27;;;;;;;5.95;2.42;;;;;;;16.66;100.00;97845.19;5139152;28;20047;-63
2023/07/27 03:54:53;;;;;;;6.45;2.83;;;;;;;16.73;100.00;97882.13;5139346;28;20423;-64
2023/07/27 03:57:19;;;;;;;5.10;2.35;;;;;;;16.73;100.00;97899.56;5138873;28;20134;-64
2023/07/27 03:59:45;;;;;;;3.00;2.28;;;;;;;16.73;100.00;97931.97;5139306;28;20054;-63
2023/07/27 04:02:11;;;;;;;3.13;1.98;;;;;;;16.64;100.00;97974.09;5138882;27;20055;-61
2023/07/27 04:04:37;;;;;;;2.47;1.92;;;;;;;16.50;100.00;97968.94;5139132;28;20434;-61
2023/07/27 04:07:04;;;;;;;5.47;2.03;;;;;;;16.75;100.00;97980.16;5138620;27;20483;-61
2023/07/27 04:09:30;;;;;;;6.22;2.40;;;;;;;16.85;100.00;97948.66;5138901;28;20070;-64
2023/07/27 04:11:56;;;;;;;5.80;2.75;;;;;;;16.89;100.00;97907.03;5138994;28;20058;-63
2023/07/27 04:14:21;;;;;;;2.75;2.25;;;;;;;16.91;100.00;97933.06;5138821;28;20456;-62
2023/07/27 04:16:47;;;;;;;4.32;1.90;;;;;;;16.93;100.00;97961.09;5138961;27;20408;-60
2023/07/27 04:19:13;;;;;;;3.50;2.05;;;;;;;16.88;100.00;97963.63;5138527;27;20405;-61
2023/07/27 04:21:40;;;;;;;3.95;2.92;;;;;;;16.94;100.00;98026.31;5138912;28;20070;-61
2023/07/27 04:24:06;;;;;;;2.80;2.30;;;;;;;17.02;100.00;97968.00;5138583;28;20062;-61
2023/07/27 04:26:32;;;;;;;3.70;1.88;;;;;;;17.04;100.00;98002.34;5138732;28;20061;-63
2023/07/27 04:28:58;;;;;;;4.20;1.90;;;;;;;16.74;100.00;98047.78;5138557;28;20057;-62
2023/07/27 04:31:24;;;;;;;6.03;2.38;;;;;;;16.94;100.00;98058.78;5138811;28;20049;-64
2023/07/27 04:33:49;;;;;;;4.85;2.80;;;;;;;17.08;100.00;98085.31;5138215;27;20079;-64
2023/07/27 04:36:15;;;;;;;4.18;2.38;;;;;;;16.96;100.00;98106.19;5138116;27;20146;-63
2023/07/27 04:38:42;;;;;;;5.35;2.30;;;;;;;16.96;100.00;98160.75;5138279;28;20054;-62
2023/07/27 04:41:08;;;;;;;3.10;2.15;;;;;;;16.91;100.00;98173.91;5138184;28;20061;-63
2023/07/27 04:43:34;;;;;;;6.60;3.20;;;;;;;16.90;100.00;98163.28;5138451;28;20138;-62
2023/07/27 04:46:00;;;;;;;5.88;2.65;;;;;;;16.78;100.00;98236.69;5138214;28;20062;-61
2023/07/27 04:48:25;;;;;;;7.00;2.63;;;;;;;16.78;100.00;98280.97;5138236;27;20494;-60
2023/07/27 04:50:51;;;;;;;9.93;2.65;;;;;;;16.77;100.00;98282.19;5138008;28;20143;-60
2023/07/27 04:53:17;;;;;;;5.53;3.53;;;;;;;16.71;100.00;98243.13;5138305;27;20055;-61
2023/07/27 04:55:44;;;;;;;5.13;2.33;;;;;;;16.87;100.00;98198.13;5137912;28;20467;-61
2023/07/27 04:58:10;;;;;;;5.55;2.50;;;;;;;16.97;100.00;98154.81;5138210;27;20479;-60
2023/07/27 05:00:36;;;;;;;6.95;2.92;;;;;;;16.99;100.00;98155.13;5137659;27;20047;-63
2023/07/27 05:03:02;;;;;;;4.57;2.97;;;;;;;17.07;100.00;98170.38;5138161;28;20142;-64
2023/07/27 05:05:28;;;;;;;3.50;2.47;;;;;;;17.09;100.00;98181.81;5137610;28;20055;-61
2023/07/27 05:07:54;;;;;;;3.85;2.20;;;;;;;17.13;100.00;98165.09;5137904;27;20055;-60
2023/07/27 05:10:20;;;;;;;2.50;2.22;;;;;;;17.23;100.00;98215.88;5137838;27;20059;-62
2023/07/27 05:12:46;;;;;;;6.25;2.40;;;;;;;17.26;100.00;98195.63;5137821;28;20047;-63
2023/07/27 05:15:12;;;;;;;3.13;2.55;;;;;;;17.25;100.00;98189.31;5137700;28;20074;-62
2023/07/27 05:17:38;;;;;;;3.95;2.83;;;;;;;17.26;100.00;98221.34;5137709;28;20089;-63
2023/07/27 05:20:05;;;;;;;4.32;2.92;;;;;;;17.29;100.00;98255.69;5137852;28;20061;-64
2023/07/27 05:22:31;;;;;;;4.38;2.40;;;;;;;17.14;100.00;98321.75;5137446;28;20329;-64
2023/07/27 05:24:57;;;;;;;10.23;3.03;;;;;;;17.26;100.00;98345.19;5137608;28;20138;-64
2023/07/27 05:27:23;;;;;;;8.18;2.85;;;;;;;17.23;100.00;98332.22;5137246;28;20061;-64
2023/07/27 05:29:50;;;;;;;5.38;3.20;;;;;;;17.29;100.00;98364.50;5137639;28;20061;-62
2023/07/27 05:32:16;;;;;;;9.05;3.78;;;;;;;17.23;100.00;98366.25;5137318;28;20055;-64
2023/07/27 05:34:42;;;;;;;6.80;2.88;;;;;;;16.96;100.00;98366.44;5137593;28;20146;-62
2023/07/27 05:37:07;;;;;;;3.72;2.00;;;;;;;16.85;100.00;98324.31;5137464;27;20119;-62
2023/07/27 05:39:33;;;;;;;8.18;3.10;;;;;;;16.79;100.00;98234.69;5137402;27;20066;-61
2023/07/27 05:41:59;;;;;;;8.45;2.97;;;;;;;16.93;100.00;98190.88;5137307;27;20051;-62
2023/07/27 05:44:25;;;;;;;3.50;2.30;;;;;;;16.84;100.00;98204.53;5137136;27;20047;-62
2023/07/27 05:46:55;;;;;;;5.35;2.50;;;;;;;16.78;100.00;98211.00;5137369;27;20199;-63
2023/07/27 05:49:21;;;;;;;4.03;2.40;;;;;;;16.59;100.00;98182.91;5137191;28;20178;-63
2023/07/27 05:51:46;;;;;;;4.72;2.35;;;;;;;16.78;100.00;98145.34;5137364;28;20074;-62
2023/07/27 05:54:12;;;;;;;8.85;3.90;;;;;;;16.78;100.00;98183.31;5136783;28;20385;-60
2023/07/27 05:56:40;;;;;;;12.52;4.05;;;;;;;16.76;100.00;98258.50;5137448;28;20094;-61
2023/07/27 05:59:06;;;;;;;6.30;3.13;;;;;;;16.70;100.00;98307.22;5136845;28;20047;-63
2023/07/27 06:01:32;;;;;;;8.40;3.35;;;;;;;16.75;100.00;98342.72;5137339;28;20051;-64
2023/07/27 06:04:00;;;;;;;5.85;3.38;;;;;;;16.84;100.00;98329.09;5136734;27;20051;-63
2023/07/27 06:06:26;;;;;;;8.55;4.47;;;;;;;16.83;100.00;98333.06;5140047;27;20077;-63
2023/07/27 06:08:53;;;;;;;6.60;3.35;;;;;;;16.66;100.00;98326.66;5140521;28;20050;-64
2023/07/27 06:11:19;;;;;;;6.68;2.75;;;;;;;16.56;100.00;98321.31;5140369;28;20115;-63
2023/07/27 06:13:46;;;;;;;9.30;3.03;;;;;;;16.64;100.00;98334.59;5140633;27;20047;-64
2023/07/27 06:16:12;;;;;;;4.40;2.95;;;;;;;16.40;100.00;98342.19;5140367;28;20087;-64
2023/07/27 06:18:38;;;;;;;8.57;3.28;;;;;;;16.32;100.00;98357.34;5140672;28;20058;-62
2023/07/27 06:21:04;;;;;;;6.13;3.45;;;;;;;16.34;100.00;98374.31;5140247;28;20138;-62
2023/07/27 06:23:30;;;;;;;8.65;3.03;;;;;;;16.50;100.00;98370.09;5140717;27;20051;-62
2023/07/27 06:25:56;;;;;;;6.07;3.25;;;;;;;16.55;100.00;98375.09;5140211;28;20302;-61
2023/07/27 06:28:22;;;;;;;3.47;3.10;;;;;;;16.49;100.00;98391.41;5140552;28;20419;-61
2023/07/27 06:30:48;;;;;;;4.95;3.40;;;;;;;16.47;100.00;98391.84;5140118;28;20051;-63
2023/07/27 06:33:14;;;;;;;3.35;2.70;;;;;;;16.32;100.00;98387.75;5140509;27;20145;-65
2023/07/27 06:35:40;;;;;;;6.30;3.15;;;;;;;16.38;100.00;98393.59;5140309;28;20055;-65
2023/07/27 06:38:07;;;;;;;5.72;3.25;;;;;;;16.20;100.00;98403.00;5140149;27;20051;-65
2023/07/27 06:40:33;;;;;;;9.32;3.38;;;;;;;16.34;100.00;98420.53;5140099;28;20058;-62
2023/07/27 06:42:59;;;;;;;5.65;3.17;;;;;;;16.10;100.00;98419.78;5140021;28;20051;-63
2023/07/27 06:45:25;;;;;;;3.35;2.88;;;;;;;16.40;100.00;98416.88;5140025;28;20115;-64
2023/07/27 06:47:51;;;;;;;9.20;3.40;;;;;;;16.38;100.00;98413.75;5139403;28;20058;-65
2023/07/27 06:50:17;;;;;;;8.18;3.50;;;;;;;16.29;100.00;98424.56;5140121;28;20405;-64
2023/07/27 06:52:43;;;;;;;3.83;3.20;;;;;;;16.33;100.00;98436.38;5139805;28;20050;-62
2023/07/27 06:55:10;;;;;;;10.35;4.70;;;;;;;16.29;100.00;98446.69;5139647;28;20067;-61
2023/07/27 06:57:36;;;;;;;5.63;3.47;;;;;;;16.24;100.00;98442.41;5139716;28;20047;-63
2023/07/27 07:00:03;;;;;;;8.98;3.80;;;;;;;16.22;100.00;98435.75;5140091;28;20106;-61
2023/07/27 07:02:29;;;;;;;4.57;3.55;;;;;;;15.89;100.00;98434.69;5139587;28;20130;-62
2023/07/27 07:04:55;;;;;;;6.43;3.85;;;;;;;15.99;100.00;98417.16;5139627;27;20054;-63
2023/07/27 07:07:21;;;;;;;9.48;3.80;;;;;;;15.88;100.00;98422.84;5139788;27;20107;-64
2023/07/27 07:09:47;;;;;;;6.78;4.45;;;;;;;15.99;100.00;98417.97;5139210;27;20051;-62
2023/07/27 07:12:14;;;;;;;13.40;6.20;;;;;;;16.04;100.00;98432.50;5139092;27;20185;-63
2023/07/27 07:14:40;;;;;;;13.02;5.93;;;;;;;16.04;100.00;98432.50;5139582;28;20086;-63
2023/07/27 07:17:06;;;;;;;6.00;4.05;;;;;;;15.88;100.00;98414.56;5138452;27;20059;-63
2023/07/27 07:19:32;;;;;;;8.40;3.92;;;;;;;15.94;100.00;98407.38;5139417;28;20134;-61
2023/07/27 07:21:59;;;;;;;4.72;3.85;;;;;;;15.85;100.00;98392.50;5139758;28;20058;-62
2023/07/27 07:24:24;;;;;;;7.97;4.55;;;;;;;15.79;100.00;98383.13;5139426;28;20387;-64
2023/07/27 07:26:50;;;;;;;14.23;4.20;;;;;;;15.81;100.00;98372.44;5139587;27;20047;-64
2023/07/27 07:29:17;;;;;;;9.95;4.38;;;;;;;15.66;100.00;98366.31;5139206;28;20058;-63
2023/07/27 07:31:43;;;;;;;9.55;6.13;;;;;;;15.72;100.00;98339.81;5139678;27;20467;-61
2023/07/27 07:34:09;;;;;;;6.13;3.80;;;;;;;15.80;100.00;98332.19;5139344;28;20047;-61
2023/07/27 07:36:35;;;;;;;5.30;3.70;;;;;;;15.88;100.00;98355.75;5139171;27;20445;-62
2023/07/27 07:39:01;;;;;;;12.32;3.97;;;;;;;15.85;100.00;98354.59;5139371;28;20107;-63
2023/07/27 07:41:27;;;;;;;8.43;5.40;;;;;;;15.80;100.00;98359.84;5139124;28;20111;-63
2023/07/27 07:43:53;;;;;;;7.38;5.30;;;;;;;15.98;100.00;98360.31;5139140;28;20096;-64
2023/07/27 07:46:19;;;;;;;7.03;5.15;;;;;;;15.80;100.00;98357.84;5138788;28;20499;-62
2023/07/27 07:48:45;;;;;;;7.90;3.53;;;;;;;15.82;100.00;98355.44;5139253;27;20051;-63
2023/07/27 07:51:12;;;;;;;8.27;3.58;;;;;;;15.50;100.00;98345.66;5120901;28;20249;-61
2023/07/27 07:53:38;;;;;;;8.43;4.05;;;;;;;15.63;100.00;98322.97;5139261;28;20061;-64
2023/07/27 07:56:05;;;;;;;6.03;4.00;;;;;;;15.67;100.00;98318.19;5138794;27;20114;-62
2023/07/27 07:58:31;;;;;;;6.43;4.10;;;;;;;15.63;100.00;98320.22;5139240;28;20134;-61
2023/07/27 08:00:57;;;;;;;9.07;3.70;;;;;;;15.66;100.00;98328.47;5138581;27;20417;-64
2023/07/27 08:03:23;;;;;;;7.18;4.18;;;;;;;15.57;100.00;98330.94;5104105;28;20130;-65
2023/07/27 08:05:49;;;;;;;8.93;4.03;;;;;;;15.48;100.00;98309.38;5138547;27;20065;-62
2023/07/27 08:08:16;;;;;;;4.85;4.07;;;;;;;15.65;100.00;98298.44;5138723;27;20129;-62
2023/07/27 08:10:42;;;;;;;10.35;6.00;;;;;;;15.85;100.00;98306.84;5138733;27;20055;-63
2023/07/27 08:13:08;;;;;;;5.38;3.63;;;;;;;15.53;100.00;98305.38;5138594;28;20082;-63
2023/07/27 08:15:34;;;;;;;7.18;5.90;;;;;;;15.91;100.00;98305.16;5138514;28;20427;-65
2023/07/27 08:18:01;;;;;;;5.85;3.70;;;;;;;15.70;100.00;98314.59;5138385;28;20055;-62
2023/07/27 08:20:28;;;;;;;5.40;3.90;;;;;;;15.80;100.00;98304.56;5137314;27;20084;-60
2023/07/27 08:22:53;;;;;;;7.38;3.60;;;;;;;15.69;100.00;98316.59;5138261;28;20057;-62
2023/07/27 08:25:21;;;;;;;8.10;4.50;;;;;;;15.74;100.00;98301.50;5138525;28;20055;-61
2023/07/27 08:27:47;;;;;;;13.65;4.45;;;;;;;16.02;100.00;98291.13;5120579;28;20047;-61
2023/07/27 08:30:13;;;;;;;10.18;3.83;;;;;;;16.07;100.00;98307.25;5138082;28;20300;-63
2023/07/27 08:32:40;;;;;;;7.22;4.07;;;;;;;15.93;100.00;98308.28;5138338;27;20428;-64
2023/07/27 08:35:08;;;;;;;5.38;4.10;;;;;;;15.93;100.00;98300.78;5138229;28;20058;-61
2023/07/27 08:37:37;;;;;;;10.05;3.75;;;;;;;15.93;100.00;98300.78;5138304;27;20107;-63
2023/07/27 08:40:03;;;;;;;7.35;3.78;;;;;;;15.91;100.00;98305.94;5138188;28;20138;-62
2023/07/27 08:42:31;;;;;;;4.65;3.58;;;;;;;16.06;100.00;98305.66;5138501;28;20047;-63
2023/07/27 08:44:58;;;;;;;7.60;3.00;;;;;;;15.83;100.00;98292.63;5137992;28;20443;-64
2023/07/27 08:47:26;;;;;;;12.30;3.83;;;;;;;16.02;100.00;98300.19;5138088;27;20362;-61
2023/07/27 08:49:53;;;;;;;4.60;3.55;;;;;;;16.11;100.00;98305.19;5137938;28;20055;-64
2023/07/27 08:52:19;;;;;;;5.65;3.40;;;;;;;15.92;100.00;98323.28;5138324;28;20396;-62
2023/07/27 08:54:46;;;;;;;7.70;3.53;;;;;;;16.03;100.00;98312.84;5138158;27;20134;-63
2023/07/27 08:57:13;;;;;;;4.45;3.35;;;;;;;16.26;100.00;98317.56;5138311;28;20056;-64
2023/07/27 08:59:39;;;;;;;5.90;3.00;;;;;;;16.22;100.00;98316.84;5138170;27;20316;-61
2023/07/27 09:02:05;;;;;;;3.67;3.10;;;;;;;16.23;100.00;98321.97;5137758;28;20051;-62
2023/07/27 09:04:31;;;;;;;6.30;3.33;;;;;;;16.38;100.00;98316.16;5137932;28;20463;-62
2023/07/27 09:07:06;;;;;;;5.75;4.25;;;;;;;16.23;100.00;98321.97;5137729;27;20138;-64
2023/07/27 09:09:32;;;;;;;10.00;3.47;;;;;;;16.43;100.00;98330.28;5138077;27;20047;-63
2023/07/27 09:11:59;;;;;;;12.52;2.90;;;;;;;16.30;100.00;98345.16;5137664;28;20085;-63
2023/07/27 09:14:25;;;;;;;5.15;2.90;;;;;;;16.26;100.00;98353.53;5138003;27;20108;-63
2023/07/27 09:16:51;;;;;;;3.25;2.80;;;;;;;15.84;100.00;98330.94;5137598;27;20480;-62
2023/07/27 09:19:18;;;;;;;5.30;3.95;;;;;;;16.15;100.00;98303.13;5137798;28;20057;-61
2023/07/27 09:21:47;;;;;;;6.80;3.45;;;;;;;16.15;100.00;98294.84;5137488;28;20408;-63
2023/07/27 09:24:15;;;;;;;4.70;3.38;;;;;;;16.10;100.00;98298.13;5137775;27;20469;-61
2023/07/27 09:26:45;;;;;;;6.35;2.90;;;;;;;16.05;100.00;98287.53;5137572;27;20139;-62
2023/07/27 09:29:12;;;;;;;4.05;2.90;;;;;;;15.77;100.00;98284.84;5137645;27;20055;-65
2023/07/27 09:31:43;;;;;;;4.65;2.78;;;;;;;15.97;100.00;98254.50;5137441;28;20394;-63
2023/07/27 09:34:09;;;;;;;2.75;2.55;;;;;;;15.65;100.00;98268.06;5137436;28;20065;-63
2023/07/27 09:36:35;;;;;;;2.60;2.20;;;;;;;15.75;100.00;98242.25;5137732;27;20141;-62
2023/07/27 09:39:03;;;;;;;5.28;2.22;;;;;;;15.95;100.00;98234.78;5136565;27;20084;-64
2023/07/27 09:41:31;;;;;;;3.55;3.20;;;;;;;15.71;100.00;98222.19;5137447;28;20047;-65
2023/07/27 09:43:57;;;;;;;9.65;2.47;;;;;;;15.86;100.00;98201.41;5137264;28;20511;-61
2023/07/27 09:46:25;;;;;;;3.20;2.13;;;;;;;15.80;100.00;98214.16;5137450;28;20066;-62
2023/07/27 09:48:52;;;;;;;2.75;2.40;;;;;;;15.85;100.00;98213.63;5137044;28;20047;-64
2023/07/27 09:51:18;;;;;;;2.78;2.33;;;;;;;15.88;100.00;98200.97;5137631;27;20047;-61
2023/07/27 09:53:45;;;;;;;2.90;2.63;;;;;;;15.94;100.00;98197.28;5136982;28;20051;-63
2023/07/27 09:56:12;;;;;;;7.32;2.85;;;;;;;15.63;100.00;98195.88;5137025;28;20043;-62
2023/07/27 09:58:39;;;;;;;2.40;2.20;;;;;;;15.74;100.00;98188.97;5137262;27;20150;-62
2023/07/27 10:01:05;;;;;;;2.67;2.00;;;;;;;15.62;100.00;98186.00;5137082;28;20078;-62
2023/07/27 10:03:32;;;;;;;6.75;2.55;;;;;;;15.57;100.00;98176.25;5137169;27;20051;-64
2023/07/27 10:06:00;;;;;;;2.05;1.85;;;;;;;15.49;100.00;98178.38;5136944;28;20082;-62
2023/07/27 10:08:26;;;;;;;2.67;2.20;;;;;;;15.60;100.00;98163.56;5137128;27;20044;-64
2023/07/27 10:10:53;;;;;;;3.95;2.03;;;;;;;15.27;100.00;98155.06;5136769;28;20053;-61
2023/07/27 10:13:35;;;;;;;2.28;2.10;;;;;;;15.54;100.00;98135.66;5137036;27;20384;-61
2023/07/27 10:16:01;;;;;;;3.60;2.22;;;;;;;15.51;100.00;98131.75;5136759;28;20196;-64
2023/07/27 10:18:28;;;;;;;4.15;2.10;;;;;;;15.52;100.00;98122.25;5136881;28;20119;-63
2023/07/27 10:20:56;;;;;;;2.42;2.22;;;;;;;15.37;100.00;98128.47;5136677;28;20207;-62
2023/07/27 10:23:27;;;;;;;2.38;2.17;;;;;;;15.44;100.00;98109.78;5136828;28;20133;-63
2023/07/27 10:26:03;;;;;;;2.30;2.10;;;;;;;15.42;100.00;98105.88;5136827;27;20047;-62
2023/07/27 10:28:31;;;;;;;3.45;2.42;;;;;;;15.64;100.00;98101.50;5136541;27;20061;-62
2023/07/27 10:31:17;;;;;;;4.15;2.05;;;;;;;15.34;100.00;98104.47;5136790;28;20139;-60
2023/07/27 10:33:45;;;;;;;2.95;2.30;;;;;;;15.46;100.00;98099.09;5136473;28;20051;-63
2023/07/27 10:36:12;;;;;;;3.58;1.95;;;;;;;15.68;100.00;98095.94;5136734;27;20115;-61
2023/07/27 10:38:37;;;;;;;5.22;2.03;;;;;;;15.41;100.00;98109.84;5136606;28;20211;-62
2023/07/27 10:41:13;;;;;;;2.88;2.17;;;;;;;15.68;100.00;98129.09;5136273;27;20408;-64
2023/07/27 10:44:18;;;;;;;3.15;2.40;;;;;;;15.49;100.00;98134.16;5136716;28;20368;-64
2023/07/27 10:46:47;;;;;;;8.20;2.40;;;;;;;15.33;100.00;98133.25;5120476;28;20047;-58
2023/07/27 10:49:15;;;;;;;3.47;2.42;;;;;;;15.41;100.00;98113.38;5136607;28;20050;-63
2023/07/27 10:51:44;;;;;;;3.17;2.22;;;;;;;15.40;100.00;98109.06;5138447;27;20367;-62
2023/07/27 10:54:10;;;;;;;1.92;1.55;;;;;;;15.26;100.00;98092.75;5140240;28;20055;-62
2023/07/27 10:56:36;;;;;;;7.10;2.13;;;;;;;15.37;100.00;98096.13;5139871;28;20389;-61
2023/07/27 10:59:02;;;;;;;6.63;2.42;;;;;;;15.47;100.00;98120.00;5139601;27;20072;-61
2023/07/27 11:01:29;;;;;;;2.00;1.83;;;;;;;15.46;100.00;98126.72;5139777;27;20462;-57
2023/07/27 11:03:55;;;;;;;2.15;2.03;;;;;;;15.40;100.00;98109.06;5139719;27;20055;-61
2023/07/27 11:06:22;;;;;;;4.35;2.45;;;;;;;15.15;100.00;98111.50;5139508;27;20153;-63
2023/07/27 11:08:48;;;;;;;3.92;1.95;;;;;;;15.45;100.00;98102.28;5139691;28;20070;-61
2023/07/27 11:11:15;;;;;;;2.67;2.35;;;;;;;15.35;100.00;98114.31;5139993;28;20286;-63
2023/07/27 11:13:41;;;;;;;6.78;2.20;;;;;;;15.44;100.00;98103.47;5139526;28;20047;-59
2023/07/27 11:16:07;;;;;;;3.35;2.25;;;;;;;15.18;100.00;98094.09;5139714;27;20086;-60
2023/07/27 11:18:34;;;;;;;2.50;2.08;;;;;;;15.39;100.00;98093.69;5139236;28;20055;-60
2023/07/27 11:21:01;;;;;;;2.22;2.03;;;;;;;15.18;100.00;98088.56;5139755;28;20051;-61
2023/07/27 11:23:27;;;;;;;2.00;1.80;;;;;;;15.19;100.00;98081.84;5139049;27;20051;-59
2023/07/27 11:25:55;;;;;;;2.03;1.77;;;;;;;15.47;100.00;98072.25;5139163;28;20153;-61